Time;durP1;ratioP1;P1;durP2;ratioP2;P2;SDS_P1;SDS_P2;PMS_P1;PMS_P2;Temp;Humidity;BMP_temperature;BMP_pressure;BME280_temperature;BME280_humidity;BME280_pressure;Samples;Min_cycle;Max_cycle;Signal;HPM_P1;HPM_P2
2022/06/10 00:00:15;;;;;;;6.72;1.85;;;22.40;47.30;;;;;;5099183;28;20020;-54
2022/06/10 00:02:43;;;;;;;7.55;1.80;;;22.40;47.40;;;;;;5081269;28;20004;-56
2022/06/10 00:05:16;;;;;;;5.50;1.40;;;22.50;47.40;;;;;;5081842;28;20056;-57
2022/06/10 00:07:50;;;;;;;;;;;22.40;47.40;;;;;;5099760;28;20055;-57
2022/06/10 00:10:19;;;;;;;5.07;1.67;;;22.50;47.40;;;;;;5098585;28;19944;-57
2022/06/10 00:12:45;;;;;;;4.85;1.10;;;22.50;47.40;;;;;;5098829;28;20016;-56
2022/06/10 00:15:12;;;;;;;7.57;1.75;;;22.40;47.40;;;;;;5098511;28;20019;-57
2022/06/10 00:17:38;;;;;;;5.07;1.50;;;22.40;47.40;;;;;;5099168;28;20017;-57
2022/06/10 00:20:05;;;;;;;5.28;1.58;;;22.40;47.50;;;;;;5098584;28;20008;-58
2022/06/10 00:22:31;;;;;;;3.80;1.20;;;22.40;47.50;;;;;;5098149;28;20047;-53
2022/06/10 00:24:56;;;;;;;4.60;1.33;;;22.40;47.50;;;;;;5096948;28;20039;-58
2022/06/10 00:27:22;;;;;;;6.60;1.90;;;22.40;47.50;;;;;;5096711;28;20356;-56
2022/06/10 00:29:48;;;;;;;4.45;1.50;;;22.40;47.60;;;;;;5096802;28;20436;-58
2022/06/10 00:32:15;;;;;;;5.28;1.95;;;22.40;47.50;;;;;;5097083;28;20019;-58
2022/06/10 00:34:41;;;;;;;4.38;1.40;;;22.40;48.10;;;;;;5097078;28;20462;-57
2022/06/10 00:37:07;;;;;;;5.40;1.30;;;22.40;47.60;;;;;;5079379;28;20031;-56
2022/06/10 00:39:34;;;;;;;5.63;1.33;;;22.40;47.60;;;;;;5097653;28;20027;-58
2022/06/10 00:42:00;;;;;;;5.03;1.63;;;22.40;47.60;;;;;;5098126;28;20024;-57
2022/06/10 00:44:32;;;;;;;4.07;1.45;;;22.40;47.70;;;;;;5097077;28;20035;-58
2022/06/10 00:46:58;;;;;;;4.30;1.50;;;22.40;47.70;;;;;;5078239;28;20020;-55
2022/06/10 00:49:24;;;;;;;3.67;1.35;;;22.40;47.70;;;;;;5077683;28;20026;-54
2022/06/10 00:51:51;;;;;;;4.30;1.45;;;22.40;47.70;;;;;;5096139;28;20016;-55
2022/06/10 00:54:37;;;;;;;5.68;1.70;;;22.40;47.70;;;;;;5045040;28;20394;-57
2022/06/10 00:57:05;;;;;;;3.92;1.30;;;22.40;48.30;;;;;;5095877;28;20020;-56
2022/06/10 01:00:02;;;;;;;4.18;1.38;;;22.40;47.80;;;;;;5095497;28;20023;-57
2022/06/10 01:02:34;;;;;;;5.07;1.20;;;22.40;47.80;;;;;;5088640;28;20121;-54
2022/06/10 01:05:01;;;;;;;5.43;1.40;;;22.40;47.80;;;;;;5095519;28;20020;-55
2022/06/10 01:07:31;;;;;;;4.70;1.63;;;22.40;47.90;;;;;;5095535;28;20016;-56
2022/06/10 01:09:57;;;;;;;4.57;1.60;;;22.40;47.90;;;;;;5077709;28;21167;-59
2022/06/10 01:12:46;;;;;;;5.07;1.27;;;22.40;47.90;;;;;;5095177;28;20425;-53
2022/06/10 01:15:22;;;;;;;5.50;1.45;;;22.40;47.90;;;;;;5095414;28;20055;-55
2022/06/10 01:17:50;;;;;;;4.72;1.70;;;22.40;48.00;;;;;;5078243;28;20027;-58
2022/06/10 01:20:34;;;;;;;4.30;1.60;;;22.40;48.00;;;;;;5096066;28;20020;-56
2022/06/10 01:23:03;;;;;;;5.35;1.73;;;22.40;48.00;;;;;;5096687;28;20036;-58
2022/06/10 01:25:44;;;;;;;5.20;1.40;;;22.40;48.00;;;;;;5096647;28;20031;-57
2022/06/10 01:28:28;;;;;;;3.78;1.13;;;22.30;48.00;;;;;;5096636;28;20013;-57
2022/06/10 01:31:39;;;;;;;4.20;1.33;;;22.40;48.10;;;;;;5097126;28;20024;-57
2022/06/10 01:34:33;;;;;;;4.18;1.45;;;22.40;48.10;;;;;;5072076;28;20031;-55
2022/06/10 01:37:22;;;;;;;5.47;1.15;;;22.30;48.10;;;;;;5078917;28;20111;-54
2022/06/10 01:40:04;;;;;;;4.53;1.30;;;22.30;48.10;;;;;;5064399;28;20023;-55
2022/06/10 01:42:33;;;;;;;3.80;1.42;;;22.30;48.10;;;;;;5079244;28;20025;-58
2022/06/10 01:45:11;;;;;;;5.93;1.42;;;22.30;48.20;;;;;;5078730;28;20020;-56
2022/06/10 01:47:56;;;;;;;4.88;1.38;;;22.30;48.20;;;;;;5096089;28;20028;-57
2022/06/10 01:50:23;;;;;;;4.65;1.30;;;22.30;48.20;;;;;;5095999;28;20012;-57
2022/06/10 01:52:53;;;;;;;3.53;1.27;;;22.30;48.20;;;;;;5096446;28;20020;-55
2022/06/10 01:55:27;;;;;;;5.45;1.40;;;22.30;48.20;;;;;;5094274;28;20019;-58
2022/06/10 01:58:11;;;;;;;5.13;1.42;;;22.30;48.30;;;;;;5077008;28;20027;-54
2022/06/10 02:00:38;;;;;;;3.25;1.33;;;22.30;48.30;;;;;;5095318;28;20023;-55
2022/06/10 02:03:39;;;;;;;4.30;1.25;;;22.30;48.30;;;;;;5060235;28;20019;-54
2022/06/10 02:06:17;;;;;;;5.90;1.50;;;22.30;48.40;;;;;;5073354;28;20036;-58
2022/06/10 02:08:51;;;;;;;4.07;1.42;;;22.30;48.40;;;;;;5078252;28;20091;-57
2022/06/10 02:11:19;;;;;;;5.10;1.48;;;22.30;48.40;;;;;;5078365;28;20066;-56
2022/06/10 02:13:50;;;;;;;3.20;1.33;;;22.30;48.50;;;;;;5060807;28;20099;-57
2022/06/10 02:16:17;;;;;;;6.45;1.40;;;22.30;48.50;;;;;;5095361;28;20027;-57
2022/06/10 02:19:11;;;;;;;5.75;1.50;;;22.30;48.50;;;;;;5094603;28;20016;-57
2022/06/10 02:21:53;;;;;;;2.83;1.15;;;22.30;48.50;;;;;;5095087;28;20031;-57
2022/06/10 02:24:35;;;;;;;4.55;1.30;;;22.30;48.50;;;;;;5095234;28;20036;-56
2022/06/10 02:27:09;;;;;;;3.05;1.35;;;22.30;48.60;;;;;;5077615;28;20040;-57
2022/06/10 02:30:00;;;;;;;3.72;1.05;;;22.30;48.60;;;;;;5095065;28;20035;-56
2022/06/10 02:32:26;;;;;;;3.60;1.33;;;22.30;48.60;;;;;;5094735;28;20036;-54
2022/06/10 02:34:54;;;;;;;3.47;1.17;;;22.30;48.60;;;;;;5095182;28;20016;-57
2022/06/10 02:37:24;;;;;;;5.55;1.50;;;22.30;48.70;;;;;;5095046;28;20012;-58
2022/06/10 02:40:12;;;;;;;5.28;1.48;;;22.30;48.70;;;;;;5060335;28;20050;-55
2022/06/10 02:43:00;;;;;;;5.18;1.58;;;22.30;48.70;;;;;;5094998;28;20020;-58
2022/06/10 02:45:33;;;;;;;5.25;1.30;;;22.30;48.70;;;;;;5062774;28;20040;-57
2022/06/10 02:48:20;;;;;;;4.85;1.50;;;22.30;48.70;;;;;;5076799;28;20020;-58
2022/06/10 02:50:46;;;;;;;6.57;1.25;;;22.20;48.70;;;;;;5095048;28;20024;-55
2022/06/10 02:53:12;;;;;;;4.13;1.15;;;22.20;49.30;;;;;;5095158;28;20012;-57
2022/06/10 02:55:38;;;;;;;3.05;1.35;;;22.20;48.80;;;;;;5060710;28;20433;-55
2022/06/10 03:01:25;;;;;;;3.45;1.23;;;22.20;48.80;;;;;;5095368;28;20032;-53
2022/06/10 03:04:03;;;;;;;3.95;1.60;;;22.20;48.80;;;;;;5095079;28;20039;-56
2022/06/10 03:06:54;;;;;;;4.18;1.48;;;22.20;48.90;;;;;;5080006;28;20020;-55
2022/06/10 03:09:34;;;;;;;3.80;1.07;;;22.20;48.90;;;;;;5098939;28;20091;-57
2022/06/10 03:12:21;;;;;;;6.47;1.55;;;22.20;48.80;;;;;;5081372;28;20023;-54
2022/06/10 03:15:14;;;;;;;4.13;1.40;;;22.20;48.90;;;;;;5098540;28;20040;-55
2022/06/10 03:17:51;;;;;;;5.85;1.60;;;22.20;48.90;;;;;;5084712;28;20032;-57
2022/06/10 03:20:34;;;;;;;6.45;1.33;;;22.20;48.90;;;;;;5098322;28;20024;-56
2022/06/10 03:23:16;;;;;;;5.28;1.33;;;22.20;48.90;;;;;;5063702;28;20126;-57
2022/06/10 03:26:05;;;;;;;4.35;1.42;;;22.20;49.50;;;;;;5097493;28;20024;-57
2022/06/10 03:29:09;;;;;;;3.75;1.45;;;22.20;49.00;;;;;;5097399;28;20012;-55
2022/06/10 03:31:59;;;;;;;5.30;1.02;;;22.20;49.00;;;;;;5074592;28;20028;-54
2022/06/10 03:34:29;;;;;;;3.30;1.13;;;22.20;49.00;;;;;;5067053;28;20028;-55
2022/06/10 03:36:57;;;;;;;6.65;1.30;;;22.20;49.10;;;;;;5079179;28;20262;-58
2022/06/10 03:39:23;;;;;;;3.67;1.25;;;22.20;49.10;;;;;;5079622;28;20024;-56
2022/06/10 03:42:28;;;;;;;3.28;1.20;;;22.20;49.10;;;;;;5080290;28;20013;-58
2022/06/10 03:44:56;;;;;;;6.15;1.20;;;22.20;49.20;;;;;;4996155;28;20042;-55
2022/06/10 03:47:25;;;;;;;3.03;0.95;;;22.20;49.10;;;;;;4996977;28;20082;-57
2022/06/10 03:50:03;;;;;;;3.55;1.17;;;22.20;49.20;;;;;;4996255;28;20049;-58
2022/06/10 03:52:31;;;;;;;3.88;1.25;;;22.20;49.20;;;;;;4964022;28;20109;-56
2022/06/10 03:54:57;;;;;;;4.60;1.70;;;22.20;49.20;;;;;;4979382;28;20037;-55
2022/06/10 03:57:24;;;;;;;5.10;1.27;;;22.20;49.20;;;;;;4995822;28;20061;-58
2022/06/10 03:59:50;;;;;;;3.30;1.40;;;22.20;49.20;;;;;;4979036;28;20050;-56
2022/06/10 04:02:16;;;;;;;3.03;1.30;;;22.20;49.20;;;;;;4995251;28;20543;-54
2022/06/10 04:04:43;;;;;;;3.63;1.20;;;22.20;49.30;;;;;;4995093;28;20034;-53
2022/06/10 04:07:13;;;;;;;4.75;1.25;;;22.20;49.30;;;;;;4979241;28;20548;-55
2022/06/10 04:09:39;;;;;;;5.55;1.27;;;22.20;49.30;;;;;;4994925;28;20106;-56
2022/06/10 04:12:05;;;;;;;4.03;1.33;;;22.20;49.30;;;;;;4995233;28;20489;-53
2022/06/10 04:14:31;;;;;;;5.00;1.38;;;22.20;49.30;;;;;;5000595;28;20064;-56
2022/06/10 04:16:57;;;;;;;5.70;1.52;;;22.20;49.90;;;;;;5078426;28;20047;-58
2022/06/10 04:19:23;;;;;;;3.58;1.60;;;22.10;49.30;;;;;;5096995;28;20024;-54
2022/06/10 04:21:49;;;;;;;3.20;1.20;;;22.20;49.40;;;;;;5096661;28;20054;-54
2022/06/10 04:24:15;;;;;;;3.05;0.98;;;22.20;49.40;;;;;;5096909;28;20028;-54
2022/06/10 04:26:40;;;;;;;3.30;1.00;;;22.20;49.40;;;;;;5097034;28;20394;-56
2022/06/10 04:29:07;;;;;;;3.85;1.08;;;22.20;49.40;;;;;;5078757;28;20091;-56
2022/06/10 04:31:34;;;;;;;3.22;1.20;;;22.20;49.40;;;;;;5096618;28;20032;-57
2022/06/10 04:33:59;;;;;;;2.50;1.10;;;22.20;49.40;;;;;;5097390;28;20049;-56
2022/06/10 04:36:26;;;;;;;2.08;1.10;;;22.20;49.40;;;;;;5096862;28;20035;-58
2022/06/10 04:38:53;;;;;;;5.18;1.63;;;22.20;49.50;;;;;;5079489;28;20012;-58
2022/06/10 04:41:19;;;;;;;5.95;1.88;;;22.10;49.40;;;;;;5097121;28;20045;-59
2022/06/10 04:43:45;;;;;;;2.08;1.25;;;22.20;49.50;;;;;;5096709;28;20028;-58
2022/06/10 04:46:16;;;;;;;4.20;1.27;;;22.10;49.40;;;;;;5096630;28;20075;-58
2022/06/10 04:48:42;;;;;;;4.03;1.73;;;22.10;49.50;;;;;;5078539;28;20459;-55
2022/06/10 04:51:08;;;;;;;4.78;1.67;;;22.20;49.50;;;;;;5097166;28;20029;-58
2022/06/10 04:53:35;;;;;;;4.05;1.45;;;22.10;49.50;;;;;;5096617;28;20020;-55
2022/06/10 04:56:01;;;;;;;4.20;1.58;;;22.10;49.50;;;;;;5096538;28;20012;-53
2022/06/10 04:58:27;;;;;;;4.07;1.67;;;22.10;49.50;;;;;;5095828;28;20051;-54
2022/06/10 05:00:53;;;;;;;6.15;1.70;;;22.10;49.50;;;;;;5095389;28;20047;-54
2022/06/10 05:03:19;;;;;;;4.13;1.70;;;22.20;49.60;;;;;;5077254;28;20104;-56
2022/06/10 05:05:44;;;;;;;5.13;1.90;;;22.10;49.50;;;;;;5096044;28;20462;-56
2022/06/10 05:08:14;;;;;;;4.43;2.03;;;22.10;49.50;;;;;;5096034;28;20104;-57
2022/06/10 05:10:41;;;;;;;4.82;1.80;;;22.10;49.50;;;;;;5095488;28;20018;-53
2022/06/10 05:13:07;;;;;;;3.85;2.00;;;22.10;49.50;;;;;;5095873;28;20019;-54
2022/06/10 05:15:32;;;;;;;4.75;1.80;;;22.10;49.50;;;;;;5095995;28;20087;-57
2022/06/10 05:17:58;;;;;;;5.47;1.70;;;22.10;49.60;;;;;;5095628;28;20047;-55
2022/06/10 05:20:33;;;;;;;4.55;2.17;;;22.10;49.50;;;;;;5095618;28;20084;-55
2022/06/10 05:22:59;;;;;;;3.72;1.98;;;22.10;49.60;;;;;;5095195;28;20032;-54
2022/06/10 05:25:25;;;;;;;3.78;1.75;;;22.10;49.60;;;;;;5095474;28;20024;-56
2022/06/10 05:27:51;;;;;;;3.97;2.30;;;22.10;49.60;;;;;;5077325;28;20028;-58
2022/06/10 05:30:18;;;;;;;6.00;2.15;;;22.10;49.60;;;;;;5077089;28;20028;-56
2022/06/10 05:32:44;;;;;;;4.65;2.13;;;22.10;49.60;;;;;;5095300;28;20015;-57
2022/06/10 05:35:10;;;;;;;6.25;2.28;;;22.10;49.60;;;;;;5095367;28;20020;-57
2022/06/10 05:37:36;;;;;;;4.97;2.38;;;22.10;49.70;;;;;;5077456;28;20024;-57
2022/06/10 05:40:01;;;;;;;4.18;2.05;;;22.10;49.60;;;;;;5060891;28;20016;-55
2022/06/10 05:42:29;;;;;;;6.10;2.70;;;22.10;49.70;;;;;;5096038;28;20059;-56
2022/06/10 05:44:55;;;;;;;5.40;2.47;;;22.10;49.70;;;;;;5078473;28;20048;-55
2022/06/10 05:47:29;;;;;;;4.88;2.50;;;22.10;49.60;;;;;;5077574;28;20111;-55
2022/06/10 05:49:57;;;;;;;5.15;2.20;;;22.10;49.60;;;;;;5095606;28;20429;-56
2022/06/10 05:52:25;;;;;;;5.20;2.20;;;22.10;49.70;;;;;;5095510;28;20094;-53
2022/06/10 05:54:53;;;;;;;5.22;2.50;;;22.10;49.70;;;;;;5094198;28;20020;-54
2022/06/10 05:57:19;;;;;;;4.82;2.38;;;22.10;49.70;;;;;;5076723;28;20024;-55
2022/06/10 05:59:47;;;;;;;3.88;2.65;;;22.10;49.70;;;;;;5094402;28;20065;-53
2022/06/10 06:02:15;;;;;;;5.78;2.42;;;22.10;49.70;;;;;;5094003;28;20052;-56
2022/06/10 06:04:41;;;;;;;4.32;2.35;;;22.10;49.70;;;;;;5076158;28;20024;-56
2022/06/10 06:07:07;;;;;;;3.92;2.30;;;22.10;49.80;;;;;;5075526;28;20036;-56
2022/06/10 06:09:33;;;;;;;7.80;2.70;;;22.10;49.80;;;;;;5074816;28;20036;-56
2022/06/10 06:11:59;;;;;;;3.88;2.30;;;22.10;49.80;;;;;;5092680;28;20011;-56
2022/06/10 06:14:28;;;;;;;5.43;2.65;;;22.10;49.70;;;;;;5094266;28;20099;-56
2022/06/10 06:16:56;;;;;;;5.55;2.67;;;22.10;49.70;;;;;;5094308;28;20039;-57
2022/06/10 06:19:22;;;;;;;4.18;2.28;;;22.10;49.80;;;;;;5092287;28;20085;-57
2022/06/10 06:21:48;;;;;;;4.70;2.50;;;22.10;50.00;;;;;;5088486;28;20078;-58
2022/06/10 06:24:16;;;;;;;4.78;2.90;;;22.10;49.80;;;;;;5072623;28;20063;-55
2022/06/10 06:26:42;;;;;;;5.28;2.38;;;22.10;49.80;;;;;;5091520;28;20011;-54
2022/06/10 06:29:08;;;;;;;6.10;2.45;;;22.10;49.80;;;;;;5091712;28;20028;-53
2022/06/10 06:31:34;;;;;;;4.25;2.65;;;22.10;49.80;;;;;;5091772;28;20016;-52
2022/06/10 06:34:00;;;;;;;7.25;3.05;;;22.10;49.90;;;;;;5092251;28;20021;-54
2022/06/10 06:36:28;;;;;;;6.50;2.83;;;22.10;49.90;;;;;;5091934;28;20023;-55
2022/06/10 06:38:54;;;;;;;3.88;2.53;;;22.10;49.90;;;;;;5092134;28;20020;-55
2022/06/10 06:41:20;;;;;;;5.00;2.58;;;22.10;49.90;;;;;;5094463;28;20088;-54
2022/06/10 06:43:45;;;;;;;6.32;2.60;;;22.10;49.90;;;;;;5096392;28;20107;-55
2022/06/10 06:46:13;;;;;;;4.88;2.65;;;22.10;49.90;;;;;;5095756;28;20016;-52
2022/06/10 06:48:38;;;;;;;5.55;2.50;;;22.10;49.90;;;;;;5095833;28;20142;-53
2022/06/10 06:51:06;;;;;;;5.57;2.60;;;22.10;49.90;;;;;;5095663;28;20044;-52
2022/06/10 06:53:35;;;;;;;5.20;2.60;;;22.10;50.00;;;;;;5096138;28;20459;-52
2022/06/10 06:56:04;;;;;;;4.82;2.60;;;22.10;49.90;;;;;;5095931;28;20016;-52
2022/06/10 06:58:30;;;;;;;4.10;2.63;;;22.10;50.00;;;;;;5077382;28;20032;-54
2022/06/10 07:00:56;;;;;;;5.05;2.67;;;22.10;50.00;;;;;;5095843;28;20023;-54
2022/06/10 07:03:21;;;;;;;5.93;2.40;;;22.10;49.90;;;;;;5077908;28;20413;-54
2022/06/10 07:05:48;;;;;;;4.82;2.65;;;22.10;49.90;;;;;;5095821;28;20008;-54
2022/06/10 07:08:14;;;;;;;4.05;2.13;;;22.20;50.00;;;;;;5095537;28;20030;-54
2022/06/10 07:10:40;;;;;;;5.20;2.63;;;22.10;49.90;;;;;;5095858;28;20071;-54
2022/06/10 07:13:06;;;;;;;4.78;2.40;;;22.20;50.00;;;;;;5076812;28;20008;-56
2022/06/10 07:15:37;;;;;;;4.28;2.45;;;22.20;49.90;;;;;;5095554;28;20012;-55
2022/06/10 07:18:03;;;;;;;3.92;2.35;;;22.10;49.90;;;;;;5096588;28;20099;-57
2022/06/10 07:20:30;;;;;;;4.90;2.33;;;22.20;50.00;;;;;;5077690;28;20494;-55
2022/06/10 07:22:57;;;;;;;5.35;2.85;;;22.20;50.10;;;;;;5095712;28;20032;-54
2022/06/10 07:25:23;;;;;;;7.95;2.45;;;22.20;50.10;;;;;;5095381;28;20360;-54
2022/06/10 07:27:52;;;;;;;5.35;2.92;;;22.20;50.10;;;;;;5095249;28;20103;-54
2022/06/10 07:30:18;;;;;;;5.88;2.95;;;22.20;50.00;;;;;;5077607;28;20039;-55
2022/06/10 07:32:44;;;;;;;6.65;2.53;;;22.20;50.10;;;;;;5095786;28;20367;-54
2022/06/10 07:35:10;;;;;;;5.70;2.60;;;22.20;50.10;;;;;;5095158;28;20481;-55
2022/06/10 07:37:36;;;;;;;5.65;2.40;;;22.20;50.10;;;;;;5095158;28;20020;-53
2022/06/10 07:40:02;;;;;;;7.75;2.80;;;22.20;50.20;;;;;;5095291;28;20554;-55
2022/06/10 07:42:28;;;;;;;4.82;2.35;;;22.20;50.30;;;;;;5076953;28;20016;-55
2022/06/10 07:44:54;;;;;;;5.50;2.28;;;22.20;50.30;;;;;;5095539;28;20028;-50
2022/06/10 07:47:20;;;;;;;10.35;2.83;;;22.20;50.30;;;;;;5095230;28;20489;-48
2022/06/10 07:49:46;;;;;;;7.07;2.80;;;22.20;50.40;;;;;;5076436;28;20016;-57
2022/06/10 07:52:12;;;;;;;7.47;2.67;;;22.30;50.40;;;;;;5093782;28;20052;-59
2022/06/10 07:54:37;;;;;;;7.05;2.55;;;22.30;50.50;;;;;;5094673;28;20034;-57
2022/06/10 07:57:04;;;;;;;5.68;2.05;;;22.20;50.60;;;;;;5059000;28;20114;-56
2022/06/10 07:59:31;;;;;;;5.90;2.35;;;22.30;50.60;;;;;;5075674;28;20012;-56
2022/06/10 08:01:57;;;;;;;5.80;2.45;;;22.30;50.70;;;;;;5077015;28;20028;-56
2022/06/10 08:04:24;;;;;;;5.97;2.58;;;22.30;50.60;;;;;;5096586;28;20028;-57
2022/06/10 08:06:50;;;;;;;8.95;2.92;;;22.30;50.90;;;;;;5096149;28;20100;-58
2022/06/10 08:09:20;;;;;;;8.15;2.70;;;22.30;50.70;;;;;;5077306;28;20062;-58
2022/06/10 08:11:50;;;;;;;7.88;2.50;;;22.40;51.00;;;;;;5096363;28;20068;-57
2022/06/10 08:14:16;;;;;;;7.85;2.45;;;22.40;50.80;;;;;;5094509;28;20016;-57
2022/06/10 08:16:42;;;;;;;7.65;2.42;;;22.40;50.60;;;;;;5094356;28;20035;-57
2022/06/10 08:19:08;;;;;;;9.25;2.60;;;22.40;50.90;;;;;;5093019;28;20104;-57
2022/06/10 08:24:20;;;;;;;8.85;2.65;;;22.40;50.80;;;;;;5093778;28;20565;-56
2022/06/10 08:26:45;;;;;;;4.68;2.22;;;22.40;50.90;;;;;;5093964;28;20012;-55
2022/06/10 08:29:11;;;;;;;6.10;2.63;;;22.40;50.70;;;;;;5075669;28;20076;-57
2022/06/10 08:31:37;;;;;;;6.80;2.60;;;22.40;50.70;;;;;;5093243;28;20024;-58
2022/06/10 08:34:03;;;;;;;7.78;2.38;;;22.50;50.90;;;;;;5093606;28;20052;-58
2022/06/10 08:36:29;;;;;;;9.50;2.80;;;22.40;51.00;;;;;;5093731;28;20036;-58
2022/06/10 08:38:55;;;;;;;6.30;2.35;;;22.50;51.20;;;;;;5074824;28;20105;-58
2022/06/10 08:41:38;;;;;;;7.10;2.58;;;22.50;51.10;;;;;;5093713;28;20070;-59
2022/06/10 08:44:40;;;;;;;8.82;2.72;;;22.50;51.20;;;;;;5075346;28;20100;-58
2022/06/10 08:47:19;;;;;;;9.00;2.63;;;22.50;51.70;;;;;;5093279;28;20471;-58
2022/06/10 08:50:07;;;;;;;7.95;2.38;;;22.50;51.70;;;;;;5074912;28;20087;-58
2022/06/10 08:52:39;;;;;;;15.90;3.25;;;22.50;51.60;;;;;;5093440;28;20020;-57
2022/06/10 08:55:05;;;;;;;3.88;1.70;;;22.50;51.70;;;;;;5093623;28;20434;-57
2022/06/10 08:57:41;;;;;;;10.23;2.78;;;22.60;51.20;;;;;;5093054;28;20355;-57
2022/06/10 09:00:31;;;;;;;12.88;2.15;;;22.60;51.50;;;;;;5074606;28;20019;-56
2022/06/10 09:03:05;;;;;;;10.80;2.40;;;22.60;51.60;;;;;;5061432;28;20032;-57
2022/06/10 09:05:37;;;;;;;5.47;2.20;;;22.60;51.30;;;;;;5074565;28;20138;-54
2022/06/10 09:08:16;;;;;;;6.78;2.75;;;22.60;51.40;;;;;;5074935;28;20350;-53
2022/06/10 09:10:48;;;;;;;7.13;2.40;;;22.60;51.20;;;;;;5059522;28;20016;-55
2022/06/10 09:13:25;;;;;;;5.55;2.25;;;22.60;51.50;;;;;;5074670;28;20012;-55
2022/06/10 09:16:09;;;;;;;9.38;2.60;;;22.60;51.30;;;;;;5092808;28;20024;-55
2022/06/10 09:18:58;;;;;;;11.07;2.42;;;22.60;51.40;;;;;;5093182;28;20008;-57
2022/06/10 09:21:46;;;;;;;6.17;2.70;;;22.60;52.10;;;;;;5092269;28;20073;-58
2022/06/10 09:24:24;;;;;;;8.30;2.63;;;22.60;52.20;;;;;;5076640;28;20293;-55
2022/06/10 09:26:54;;;;;;;8.68;2.65;;;22.70;52.20;;;;;;5075469;28;20024;-56
2022/06/10 09:29:20;;;;;;;6.32;2.38;;;22.70;51.80;;;;;;5092487;28;20020;-55
2022/06/10 09:31:56;;;;;;;6.10;2.55;;;22.60;51.90;;;;;;5092676;28;20453;-54
2022/06/10 09:34:28;;;;;;;5.47;2.17;;;22.70;51.60;;;;;;5092061;28;20011;-54
2022/06/10 09:37:25;;;;;;;7.00;2.45;;;22.70;52.00;;;;;;5092220;28;20118;-54
2022/06/10 09:43:00;;;;;;;7.80;2.20;;;22.70;51.80;;;;;;5076901;28;20063;-55
2022/06/10 09:45:29;;;;;;;6.32;2.10;;;22.80;51.90;;;;;;5091960;28;20031;-53
2022/06/10 09:48:03;;;;;;;7.80;2.35;;;22.70;52.30;;;;;;5073761;28;20039;-54
2022/06/10 09:50:41;;;;;;;7.40;2.40;;;22.70;51.90;;;;;;5058254;28;20093;-55
2022/06/10 09:53:37;;;;;;;9.75;2.28;;;22.80;52.00;;;;;;5092040;28;20485;-54
2022/06/10 09:56:12;;;;;;;4.85;2.20;;;22.80;52.20;;;;;;5091976;28;20428;-53
2022/06/10 09:58:44;;;;;;;7.53;2.47;;;22.70;52.70;;;;;;5092884;28;20028;-55
2022/06/10 10:01:16;;;;;;;6.15;2.28;;;22.70;52.70;;;;;;5075100;28;20035;-57
2022/06/10 10:04:03;;;;;;;7.05;2.58;;;22.80;52.40;;;;;;5094150;28;20024;-58
2022/06/10 10:06:46;;;;;;;6.85;2.83;;;22.80;53.40;;;;;;5093124;28;20012;-56
2022/06/10 10:09:27;;;;;;;12.18;3.00;;;22.80;53.80;;;;;;5093044;28;20012;-55
2022/06/10 10:12:26;;;;;;;7.90;2.20;;;22.80;53.10;;;;;;5092959;28;20005;-54
2022/06/10 10:14:59;;;;;;;11.50;2.50;;;22.80;53.30;;;;;;5074241;28;20024;-55
2022/06/10 10:17:59;;;;;;;9.93;2.40;;;22.80;52.50;;;;;;5074161;28;20116;-55
2022/06/10 10:20:38;;;;;;;15.70;2.85;;;22.80;52.50;;;;;;5076392;28;20012;-56
2022/06/10 10:23:13;;;;;;;9.00;2.70;;;22.90;52.90;;;;;;5092923;28;20042;-55
2022/06/10 10:25:40;;;;;;;8.07;2.30;;;22.90;52.40;;;;;;5076216;28;20101;-57
2022/06/10 10:28:22;;;;;;;9.75;2.60;;;22.90;52.70;;;;;;5092844;28;20015;-58
2022/06/10 10:31:09;;;;;;;10.23;2.30;;;22.90;52.40;;;;;;5076859;28;20142;-59
2022/06/10 10:33:34;;;;;;;10.40;2.67;;;22.90;52.60;;;;;;5092217;28;20497;-57
2022/06/10 10:36:00;;;;;;;8.00;2.50;;;22.90;52.70;;;;;;5073821;28;20028;-58
2022/06/10 10:38:41;;;;;;;10.88;2.40;;;22.90;52.90;;;;;;5091924;28;20463;-57
2022/06/10 10:41:13;;;;;;;8.55;3.00;;;22.90;53.70;;;;;;5092871;28;20023;-56
2022/06/10 10:43:39;;;;;;;10.60;2.42;;;22.90;53.70;;;;;;5092729;28;20478;-58
2022/06/10 10:46:30;;;;;;;6.70;2.22;;;23.00;53.20;;;;;;5073463;28;20081;-56
2022/06/10 10:48:57;;;;;;;9.57;2.63;;;23.00;53.40;;;;;;5091425;28;20012;-58
2022/06/10 10:51:41;;;;;;;6.63;2.65;;;23.00;53.30;;;;;;5073670;28;20039;-58
2022/06/10 10:54:15;;;;;;;9.77;2.40;;;23.00;53.10;;;;;;5091671;28;20092;-57
2022/06/10 10:56:41;;;;;;;9.15;2.60;;;23.00;52.90;;;;;;5073452;28;20119;-57
2022/06/10 10:59:25;;;;;;;11.52;2.47;;;23.10;53.30;;;;;;5091527;28;20008;-57
2022/06/10 11:01:51;;;;;;;14.52;2.50;;;23.00;53.30;;;;;;5074209;28;20050;-56
2022/06/10 11:04:24;;;;;;;8.43;2.60;;;23.00;53.40;;;;;;5091532;28;20031;-56
2022/06/10 11:07:08;;;;;;;8.07;2.20;;;23.00;53.60;;;;;;5091343;28;20092;-58
2022/06/10 11:09:42;;;;;;;12.57;2.83;;;23.00;53.70;;;;;;5072829;28;20089;-57
2022/06/10 11:12:12;;;;;;;12.32;3.00;;;23.00;53.40;;;;;;5092090;28;20012;-57
2022/06/10 11:14:38;;;;;;;8.40;2.40;;;23.10;53.10;;;;;;5056825;28;20032;-56
2022/06/10 11:17:13;;;;;;;9.48;2.25;;;23.00;53.20;;;;;;5092121;28;20456;-58
2022/06/10 11:19:46;;;;;;;6.40;2.08;;;23.10;53.40;;;;;;5091576;28;20122;-56
2022/06/10 11:22:22;;;;;;;7.83;2.10;;;23.10;53.20;;;;;;5091116;28;20036;-57
2022/06/10 11:25:14;;;;;;;13.80;2.88;;;23.10;53.20;;;;;;5091310;28;20031;-55
2022/06/10 11:27:49;;;;;;;10.68;2.63;;;23.10;53.30;;;;;;5080304;28;20484;-55
2022/06/10 11:30:15;;;;;;;10.63;3.03;;;23.10;53.30;;;;;;5095363;28;20062;-55
2022/06/10 11:33:03;;;;;;;8.25;2.75;;;23.10;53.30;;;;;;5095338;28;20021;-55
2022/06/10 11:35:38;;;;;;;9.63;2.20;;;23.10;53.20;;;;;;5094569;28;20159;-55
2022/06/10 11:38:17;;;;;;;8.00;2.55;;;23.10;53.30;;;;;;5076846;28;20012;-55
2022/06/10 11:40:46;;;;;;;9.05;2.33;;;23.20;53.00;;;;;;5042298;28;20035;-56
2022/06/10 11:43:31;;;;;;;11.05;2.63;;;23.20;53.00;;;;;;5094867;28;20121;-53
2022/06/10 11:45:57;;;;;;;11.68;2.58;;;23.20;52.90;;;;;;5094784;28;20466;-54
2022/06/10 11:48:48;;;;;;;6.25;2.63;;;23.30;52.70;;;;;;5076988;28;20063;-57
2022/06/10 11:51:42;;;;;;;7.15;2.30;;;23.30;52.60;;;;;;5077079;28;20016;-54
2022/06/10 11:54:38;;;;;;;8.23;2.67;;;23.30;52.60;;;;;;5077873;28;20047;-55
2022/06/10 12:00:23;;;;;;;11.57;2.65;;;23.40;52.50;;;;;;5095695;28;20387;-56
2022/06/10 12:03:14;;;;;;;7.50;2.50;;;23.30;52.70;;;;;;5078148;28;20032;-57
2022/06/10 12:05:54;;;;;;;12.23;2.72;;;23.30;52.90;;;;;;5095742;28;20035;-55
2022/06/10 12:08:43;;;;;;;8.98;2.45;;;23.30;53.00;;;;;;5096564;28;20016;-54
2022/06/10 12:11:14;;;;;;;18.08;2.70;;;23.30;53.30;;;;;;5096141;28;20091;-56
2022/06/10 12:13:48;;;;;;;13.05;2.47;;;23.30;53.20;;;;;;5096403;28;20172;-54
2022/06/10 12:16:13;;;;;;;8.68;2.47;;;23.30;53.00;;;;;;5061339;28;20065;-55
2022/06/10 12:18:42;;;;;;;9.57;2.40;;;23.30;52.90;;;;;;5097025;28;20024;-57
2022/06/10 12:21:15;;;;;;;7.50;2.55;;;23.30;53.20;;;;;;5076874;28;20035;-55
2022/06/10 12:23:43;;;;;;;10.35;2.50;;;23.30;53.00;;;;;;5077716;28;20024;-55
2022/06/10 12:26:09;;;;;;;10.15;2.28;;;23.30;53.10;;;;;;5095133;28;20021;-54
2022/06/10 12:28:42;;;;;;;10.65;2.35;;;23.40;53.10;;;;;;5094222;28;20024;-56
2022/06/10 12:31:29;;;;;;;9.02;2.35;;;23.30;53.00;;;;;;5076827;28;20019;-54
2022/06/10 12:34:30;;;;;;;7.70;2.20;;;23.40;53.10;;;;;;5059915;28;20050;-54
2022/06/10 12:36:57;;;;;;;;;;;23.40;52.80;;;;;;5044491;28;20034;-53
2022/06/10 12:39:23;;;;;;;6.75;2.35;;;23.40;52.60;;;;;;5075600;28;19904;-54
2022/06/10 12:42:11;;;;;;;6.32;2.63;;;23.50;52.90;;;;;;5094336;28;20047;-52
2022/06/10 12:44:39;;;;;;;9.25;2.30;;;23.40;53.00;;;;;;5076150;28;20040;-52
2022/06/10 12:47:07;;;;;;;13.07;2.75;;;23.40;53.00;;;;;;5076363;28;20004;-51
2022/06/10 12:49:46;;;;;;;9.82;3.22;;;23.40;52.80;;;;;;5093797;28;20022;-52
2022/06/10 12:52:39;;;;;;;8.82;2.20;;;23.40;52.90;;;;;;5093968;28;20009;-53
2022/06/10 12:55:28;;;;;;;8.18;2.33;;;23.40;53.00;;;;;;5094302;28;20027;-52
2022/06/10 12:57:56;;;;;;;10.50;2.42;;;23.40;52.80;;;;;;5075937;28;20013;-52
2022/06/10 13:00:23;;;;;;;6.05;2.28;;;23.30;52.80;;;;;;5076126;28;20451;-55
2022/06/10 13:02:57;;;;;;;8.80;2.35;;;23.40;53.00;;;;;;5093803;28;20020;-52
2022/06/10 13:05:32;;;;;;;11.07;2.35;;;23.30;53.20;;;;;;5093679;28;20035;-51
2022/06/10 13:07:58;;;;;;;11.80;2.50;;;23.40;53.30;;;;;;5093513;28;20047;-51
2022/06/10 13:10:33;;;;;;;11.77;2.60;;;23.40;53.20;;;;;;5075453;28;20088;-51
2022/06/10 13:13:22;;;;;;;10.30;2.60;;;23.30;53.40;;;;;;5093219;28;20024;-51
2022/06/10 13:15:48;;;;;;;8.52;2.58;;;23.30;53.30;;;;;;5094365;28;20158;-53
2022/06/10 13:18:17;;;;;;;9.82;2.78;;;23.30;53.30;;;;;;5094490;28;20023;-52
2022/06/10 13:20:43;;;;;;;6.63;2.10;;;23.30;53.40;;;;;;5095319;28;20039;-54
2022/06/10 13:23:23;;;;;;;8.80;1.90;;;23.30;53.40;;;;;;5077620;28;20123;-52
2022/06/10 13:26:12;;;;;;;8.57;2.72;;;23.30;53.30;;;;;;5095318;28;20103;-54